Time;durP1;ratioP1;P1;durP2;ratioP2;P2;SDS_P1;SDS_P2;PMS_P1;PMS_P2;Temp;Humidity;BMP_temperature;BMP_pressure;BME280_temperature;BME280_humidity;BME280_pressure;Samples;Min_cycle;Max_cycle;Signal;HPM_P1;HPM_P2
2024/03/15 00:02:00;;;;;;;184.80;64.28;;;;;;;;;;5012300;28;20060;-62
2024/03/15 00:04:48;;;;;;;188.05;63.17;;;;;;;;;;5013500;28;20045;-62
2024/03/15 00:07:41;;;;;;;182.18;61.40;;;;;;;;;;5015062;28;20457;-63
2024/03/15 00:10:28;;;;;;;162.40;58.55;;;;;;;;;;5018276;28;20050;-63
2024/03/15 00:13:22;;;;;;;136.20;49.70;;;;;;;;;;5015071;28;20057;-63
2024/03/15 00:16:11;;;;;;;195.52;56.10;;;;;;;;;;5015800;28;20137;-62
2024/03/15 00:18:53;;;;;;;146.90;53.83;;;;;;;;;;5016303;28;20478;-61
2024/03/15 00:21:27;;;;;;;160.48;51.85;;;;;;;;;;5015874;28;20156;-60
2024/03/15 00:24:00;;;;;;;155.35;53.95;;;;;;;;;;5016304;28;20056;-61
2024/03/15 00:26:28;;;;;;;173.25;55.30;;;;;;;;;;5014399;28;20141;-60
2024/03/15 00:28:58;;;;;;;113.45;44.30;;;;;;;;;;5015690;28;20053;-62
2024/03/15 00:31:32;;;;;;;120.95;43.30;;;;;;;;;;5013689;28;20072;-62
2024/03/15 00:34:00;;;;;;;129.32;48.63;;;;;;;;;;5016668;28;20057;-62
2024/03/15 00:36:34;;;;;;;94.65;39.75;;;;;;;;;;5015962;28;20060;-62
2024/03/15 00:39:01;;;;;;;;;;;;;;;;;;5013860;28;21061;-61
2024/03/15 00:41:28;;;;;;;100.15;39.63;;;;;;;;;;5016861;28;20808;-61
2024/03/15 00:44:01;;;;;;;106.20;42.15;;;;;;;;;;5016349;28;20690;-61
2024/03/15 00:46:29;;;;;;;97.40;36.90;;;;;;;;;;5014020;28;20053;-49
2024/03/15 00:49:02;;;;;;;130.88;45.08;;;;;;;;;;5015488;28;20061;-50
2024/03/15 00:51:30;;;;;;;;;;;;;;;;;;5017660;28;20049;-48
2024/03/15 00:53:57;;;;;;;100.47;41.38;;;;;;;;;;5015413;28;20401;-52
2024/03/15 00:56:31;;;;;;;119.45;44.35;;;;;;;;;;5016990;28;20414;-53
2024/03/15 00:58:58;;;;;;;122.60;42.40;;;;;;;;;;5016440;28;20064;-65
2024/03/15 01:01:31;;;;;;;113.07;43.70;;;;;;;;;;5010394;28;20060;-62
2024/03/15 01:03:59;;;;;;;150.32;46.10;;;;;;;;;;4992335;28;20512;-62
2024/03/15 01:06:52;;;;;;;133.77;45.22;;;;;;;;;;5016003;28;20056;-62
2024/03/15 01:09:39;;;;;;;151.65;47.85;;;;;;;;;;5016737;28;20050;-62
2024/03/15 01:12:34;;;;;;;155.30;49.10;;;;;;;;;;5017667;28;20487;-61
2024/03/15 01:15:20;;;;;;;169.00;50.70;;;;;;;;;;5016301;28;20057;-62
2024/03/15 01:18:16;;;;;;;170.15;53.20;;;;;;;;;;5018131;28;20132;-61
2024/03/15 01:21:08;;;;;;;156.90;53.55;;;;;;;;;;5012753;28;20511;-62
2024/03/15 01:24:02;;;;;;;190.65;57.88;;;;;;;;;;5015289;28;20061;-62
2024/03/15 01:27:02;;;;;;;182.13;58.05;;;;;;;;;;5018832;28;20045;-62
2024/03/15 01:29:56;;;;;;;261.40;64.25;;;;;;;;;;5014932;28;20152;-47
2024/03/15 01:32:44;;;;;;;217.93;61.67;;;;;;;;;;5017180;28;20522;-51
2024/03/15 01:35:38;;;;;;;179.48;60.50;;;;;;;;;;5015965;28;20580;-46
2024/03/15 01:38:25;;;;;;;183.25;62.58;;;;;;;;;;5016700;28;20057;-48
2024/03/15 01:41:18;;;;;;;189.98;60.90;;;;;;;;;;5015975;28;20401;-51
2024/03/15 01:44:06;;;;;;;241.55;68.90;;;;;;;;;;5016475;28;20495;-49
2024/03/15 01:46:59;;;;;;;202.40;65.70;;;;;;;;;;5012541;28;20057;-53
2024/03/15 01:49:47;;;;;;;269.92;71.13;;;;;;;;;;5015867;28;20052;-48
2024/03/15 01:52:42;;;;;;;278.73;72.50;;;;;;;;;;5013357;28;20050;-49
2024/03/15 01:55:29;;;;;;;223.15;71.28;;;;;;;;;;5015379;28;20487;-64
2024/03/15 01:58:24;;;;;;;243.05;72.60;;;;;;;;;;5016170;28;20502;-62
2024/03/15 02:01:11;;;;;;;245.50;71.13;;;;;;;;;;5015230;28;20057;-61
2024/03/15 02:04:03;;;;;;;266.42;72.85;;;;;;;;;;5014157;28;20049;-62
2024/03/15 02:06:57;;;;;;;272.38;75.22;;;;;;;;;;5017072;28;20511;-62
2024/03/15 02:09:51;;;;;;;224.43;70.60;;;;;;;;;;5018897;28;20572;-62
2024/03/15 02:12:39;;;;;;;204.75;68.63;;;;;;;;;;5021003;28;20707;-51
2024/03/15 02:15:34;;;;;;;245.43;75.13;;;;;;;;;;5015562;28;20056;-50
2024/03/15 02:18:20;;;;;;;245.38;73.30;;;;;;;;;;5016621;28;20131;-51
2024/03/15 02:21:20;;;;;;;223.70;72.32;;;;;;;;;;5017051;28;20057;-51
2024/03/15 02:24:08;;;;;;;221.43;73.50;;;;;;;;;;5016568;28;20049;-65
2024/03/15 02:27:01;;;;;;;266.48;78.25;;;;;;;;;;5015874;28;20057;-52
2024/03/15 02:29:51;;;;;;;235.50;75.90;;;;;;;;;;5014924;28;20056;-51
2024/03/15 02:32:43;;;;;;;247.57;75.63;;;;;;;;;;5015074;28;20135;-54
2024/03/15 02:35:31;;;;;;;286.05;83.45;;;;;;;;;;5012244;28;20482;-51
2024/03/15 02:38:26;;;;;;;279.90;78.88;;;;;;;;;;5011942;28;20108;-52
2024/03/15 02:41:13;;;;;;;232.85;73.20;;;;;;;;;;5017356;28;20120;-52
2024/03/15 02:44:05;;;;;;;252.98;74.22;;;;;;;;;;5017150;28;20058;-53
2024/03/15 02:46:51;;;;;;;237.02;76.95;;;;;;;;;;5015956;28;20613;-52
2024/03/15 02:49:45;;;;;;;259.27;77.18;;;;;;;;;;5018045;28;20050;-52
2024/03/15 02:52:32;;;;;;;249.23;77.28;;;;;;;;;;5018541;28;20061;-60
2024/03/15 02:55:27;;;;;;;257.35;77.55;;;;;;;;;;5015956;28;20057;-54
2024/03/15 02:58:13;;;;;;;311.02;85.30;;;;;;;;;;5019112;28;20088;-51
2024/03/15 03:01:08;;;;;;;332.80;85.25;;;;;;;;;;5018321;28;20514;-53
2024/03/15 03:03:56;;;;;;;260.10;75.53;;;;;;;;;;5018667;28;20064;-54
2024/03/15 03:06:56;;;;;;;252.45;80.13;;;;;;;;;;5015906;28;20135;-50
2024/03/15 03:09:43;;;;;;;270.23;78.20;;;;;;;;;;5015097;28;20049;-61
2024/03/15 03:12:37;;;;;;;217.57;73.65;;;;;;;;;;5015187;28;20818;-61
2024/03/15 03:15:25;;;;;;;237.48;78.78;;;;;;;;;;5014899;28;20057;-61
2024/03/15 03:18:18;;;;;;;244.77;77.78;;;;;;;;;;5011553;28;20132;-61
2024/03/15 03:21:12;;;;;;;243.77;77.55;;;;;;;;;;5017194;28;20060;-61
2024/03/15 03:24:05;;;;;;;235.25;70.15;;;;;;;;;;5015130;28;20073;-55
2024/03/15 03:26:53;;;;;;;237.27;76.63;;;;;;;;;;5015241;28;20073;-54
2024/03/15 03:29:46;;;;;;;280.92;80.47;;;;;;;;;;5014994;28;20515;-53
2024/03/15 03:32:37;;;;;;;288.88;86.18;;;;;;;;;;5015381;28;20069;-52
2024/03/15 03:35:31;;;;;;;266.90;79.90;;;;;;;;;;5014151;28;20056;-52
2024/03/15 03:38:18;;;;;;;296.08;86.32;;;;;;;;;;5015486;28;20050;-61
2024/03/15 03:41:12;;;;;;;268.98;82.57;;;;;;;;;;5011968;28;20107;-61
2024/03/15 03:43:58;;;;;;;298.67;86.97;;;;;;;;;;5013627;28;20057;-61
2024/03/15 03:46:52;;;;;;;328.02;86.18;;;;;;;;;;5014181;28;20511;-61
2024/03/15 03:49:40;;;;;;;277.67;78.15;;;;;;;;;;5015156;28;20054;-61
2024/03/15 03:52:33;;;;;;;289.13;86.15;;;;;;;;;;5017769;28;20171;-61
2024/03/15 03:55:27;;;;;;;303.10;84.18;;;;;;;;;;5016874;28;20049;-61
2024/03/15 03:58:23;;;;;;;275.13;82.93;;;;;;;;;;5014710;28;20128;-61
2024/03/15 04:01:08;;;;;;;297.00;84.25;;;;;;;;;;5019740;28;20119;-59
2024/03/15 04:04:03;;;;;;;263.23;81.70;;;;;;;;;;5017938;28;20172;-61
2024/03/15 04:06:51;;;;;;;252.65;74.15;;;;;;;;;;5019057;28;20057;-61
2024/03/15 04:09:43;;;;;;;267.73;79.50;;;;;;;;;;5016664;28;20061;-61
2024/03/15 04:12:31;;;;;;;271.63;80.72;;;;;;;;;;5011822;28;20057;-61
2024/03/15 04:15:24;;;;;;;233.65;74.60;;;;;;;;;;5015816;28;20054;-61
2024/03/15 04:18:12;;;;;;;303.38;83.72;;;;;;;;;;5015583;28;20057;-50
2024/03/15 04:21:13;;;;;;;325.48;84.10;;;;;;;;;;5014934;28;20740;-62
2024/03/15 04:23:59;;;;;;;300.60;82.72;;;;;;;;;;5013301;28;21315;-63
2024/03/15 04:26:54;;;;;;;363.92;85.82;;;;;;;;;;5015200;28;20080;-63
2024/03/15 04:29:40;;;;;;;271.38;75.43;;;;;;;;;;5015874;28;20072;-62
2024/03/15 04:32:34;;;;;;;302.13;81.65;;;;;;;;;;5013331;28;20430;-62
2024/03/15 04:35:22;;;;;;;267.20;80.85;;;;;;;;;;5017121;28;20053;-62
2024/03/15 04:38:15;;;;;;;267.02;83.15;;;;;;;;;;5014806;28;20072;-62
2024/03/15 04:41:09;;;;;;;272.35;80.95;;;;;;;;;;5015172;28;20050;-62
2024/03/15 04:43:57;;;;;;;282.42;79.43;;;;;;;;;;5015650;28;20491;-61
2024/03/15 04:46:43;;;;;;;267.58;77.55;;;;;;;;;;5015307;28;20512;-62
2024/03/15 04:49:38;;;;;;;263.00;82.40;;;;;;;;;;5015487;28;20423;-50
2024/03/15 04:52:27;;;;;;;204.00;71.57;;;;;;;;;;5017852;28;20103;-50
2024/03/15 04:55:20;;;;;;;199.25;67.38;;;;;;;;;;5012748;28;20495;-46
2024/03/15 04:58:11;;;;;;;265.00;76.75;;;;;;;;;;5016276;28;20442;-49
2024/03/15 05:01:01;;;;;;;235.57;75.07;;;;;;;;;;5019573;28;20068;-50
2024/03/15 05:03:48;;;;;;;272.88;78.15;;;;;;;;;;5015404;28;20140;-61
2024/03/15 05:06:43;;;;;;;216.75;72.18;;;;;;;;;;5018911;28;20068;-61
2024/03/15 05:09:30;;;;;;;173.43;65.30;;;;;;;;;;5017929;28;20065;-61
2024/03/15 05:12:23;;;;;;;148.27;58.78;;;;;;;;;;5017003;28;20057;-60
2024/03/15 05:15:12;;;;;;;187.70;67.32;;;;;;;;;;5016755;28;21259;-62
2024/03/15 05:18:07;;;;;;;167.23;62.70;;;;;;;;;;5017315;28;20453;-62
2024/03/15 05:21:01;;;;;;;189.80;66.25;;;;;;;;;;5019457;28;20053;-62
2024/03/15 05:23:55;;;;;;;175.63;63.72;;;;;;;;;;5012354;28;20058;-62
2024/03/15 05:26:43;;;;;;;173.13;63.05;;;;;;;;;;5016987;28;20060;-62
2024/03/15 05:29:38;;;;;;;175.63;61.10;;;;;;;;;;5017684;28;20061;-62
2024/03/15 05:32:24;;;;;;;172.27;57.70;;;;;;;;;;5018895;28;20510;-61
2024/03/15 05:35:21;;;;;;;135.77;50.90;;;;;;;;;;5017996;28;20045;-60
2024/03/15 05:38:09;;;;;;;112.97;45.45;;;;;;;;;;5015761;28;20747;-61
2024/03/15 05:41:03;;;;;;;112.82;45.10;;;;;;;;;;5013123;28;20321;-62
2024/03/15 05:43:56;;;;;;;109.72;45.08;;;;;;;;;;5011704;28;20711;-61
2024/03/15 05:46:42;;;;;;;114.32;45.67;;;;;;;;;;5014042;28;20148;-55
2024/03/15 05:49:36;;;;;;;93.15;38.08;;;;;;;;;;5010085;28;20519;-53
2024/03/15 05:52:23;;;;;;;86.65;36.67;;;;;;;;;;5014222;28;20053;-53
2024/03/15 05:55:18;;;;;;;82.88;33.70;;;;;;;;;;5019910;28;22451;-53
2024/03/15 05:58:05;;;;;;;80.25;33.45;;;;;;;;;;5019291;28;20056;-53
2024/03/15 06:00:58;;;;;;;103.70;36.25;;;;;;;;;;5019520;28;20046;-61
2024/03/15 06:03:46;;;;;;;67.22;32.45;;;;;;;;;;5013943;28;20077;-61
2024/03/15 06:06:40;;;;;;;85.45;35.35;;;;;;;;;;4997702;28;20132;-61
2024/03/15 06:09:29;;;;;;;103.82;37.25;;;;;;;;;;5013011;28;20050;-62
2024/03/15 06:12:27;;;;;;;89.43;34.17;;;;;;;;;;5017206;28;20462;-48
2024/03/15 06:15:09;;;;;;;61.78;28.60;;;;;;;;;;5016992;28;20057;-47
2024/03/15 06:18:03;;;;;;;78.63;30.65;;;;;;;;;;5017322;28;20144;-48
2024/03/15 06:20:57;;;;;;;72.07;32.65;;;;;;;;;;5029263;28;21169;-46
2024/03/15 06:23:50;;;;;;;81.90;34.05;;;;;;;;;;5037058;28;20661;-50
2024/03/15 06:26:44;;;;;;;86.78;36.75;;;;;;;;;;5035558;28;20045;-51
2024/03/15 06:29:33;;;;;;;80.05;35.90;;;;;;;;;;5037006;28;20494;-62
2024/03/15 06:32:26;;;;;;;78.75;37.47;;;;;;;;;;5035959;28;20620;-62
2024/03/15 06:35:19;;;;;;;69.68;35.08;;;;;;;;;;5035874;28;20061;-62
2024/03/15 06:38:30;;;;;;;82.43;37.97;;;;;;;;;;5038165;28;20052;-62
2024/03/15 06:43:59;;;;;;;87.70;41.83;;;;;;;;;;5039327;28;20049;-62
2024/03/15 06:47:28;;;;;;;115.75;48.22;;;;;;;;;;5036375;28;20140;-62
2024/03/15 06:50:06;;;;;;;107.05;46.28;;;;;;;;;;5037148;28;20045;-62
2024/03/15 06:52:42;;;;;;;85.65;42.47;;;;;;;;;;5037782;28;20426;-62
2024/03/15 06:55:36;;;;;;;85.68;40.22;;;;;;;;;;5040225;28;20468;-62
2024/03/15 06:58:24;;;;;;;101.55;46.13;;;;;;;;;;5039928;28;20053;-60
2024/03/15 07:01:17;;;;;;;92.22;44.92;;;;;;;;;;5038433;28;20056;-62
2024/03/15 07:04:13;;;;;;;90.90;44.20;;;;;;;;;;5035230;28;20064;-61
2024/03/15 07:07:06;;;;;;;99.53;47.88;;;;;;;;;;5035234;28;20053;-49
2024/03/15 07:09:52;;;;;;;104.30;51.08;;;;;;;;;;5033634;28;20045;-62
2024/03/15 07:12:49;;;;;;;99.82;49.28;;;;;;;;;;5034216;28;20519;-62
2024/03/15 07:15:36;;;;;;;89.40;45.38;;;;;;;;;;5034912;28;20057;-62
2024/03/15 07:18:28;;;;;;;114.70;53.92;;;;;;;;;;5037600;28;20128;-62
2024/03/15 07:21:32;;;;;;;108.18;52.13;;;;;;;;;;5017983;28;20057;-62
2024/03/15 07:24:26;;;;;;;114.18;51.97;;;;;;;;;;5014930;28;20049;-61
2024/03/15 07:27:13;;;;;;;101.90;51.92;;;;;;;;;;5017695;28;20068;-61
2024/03/15 07:30:11;;;;;;;94.05;46.70;;;;;;;;;;5013534;28;20057;-61
2024/03/15 07:32:55;;;;;;;113.10;55.30;;;;;;;;;;5014161;28;20078;-60
2024/03/15 07:35:48;;;;;;;116.65;56.50;;;;;;;;;;5015976;28;20049;-51
2024/03/15 07:38:36;;;;;;;95.73;49.73;;;;;;;;;;5014144;28;20072;-61
2024/03/15 07:41:32;;;;;;;114.78;57.38;;;;;;;;;;5017655;28;20304;-61
2024/03/15 07:44:17;;;;;;;91.72;48.97;;;;;;;;;;5014862;28;20077;-61
2024/03/15 07:47:10;;;;;;;116.35;59.58;;;;;;;;;;5016444;28;20502;-60
2024/03/15 07:50:07;;;;;;;116.70;62.08;;;;;;;;;;5013711;28;20570;-61
2024/03/15 07:52:58;;;;;;;112.78;60.30;;;;;;;;;;5017942;28;20054;-51
2024/03/15 07:55:46;;;;;;;109.95;59.15;;;;;;;;;;5019431;28;20045;-50
2024/03/15 07:58:41;;;;;;;120.25;61.17;;;;;;;;;;5017962;28;20068;-50
2024/03/15 08:01:27;;;;;;;115.03;61.22;;;;;;;;;;5016756;28;20108;-52
2024/03/15 08:04:20;;;;;;;105.05;57.53;;;;;;;;;;5014383;28;21223;-61
2024/03/15 08:07:07;;;;;;;108.97;60.35;;;;;;;;;;5014312;28;20045;-61
2024/03/15 08:10:02;;;;;;;103.28;57.45;;;;;;;;;;5015678;28;20081;-61
2024/03/15 08:12:49;;;;;;;108.57;60.22;;;;;;;;;;5014702;28;20057;-61
2024/03/15 08:15:42;;;;;;;95.03;54.45;;;;;;;;;;5012884;28;20633;-62
2024/03/15 08:18:30;;;;;;;101.43;57.05;;;;;;;;;;5012325;28;20042;-61
2024/03/15 08:21:37;;;;;;;96.68;55.80;;;;;;;;;;5015887;28;20069;-63
2024/03/15 08:24:26;;;;;;;106.57;59.22;;;;;;;;;;5014767;28;20056;-62
2024/03/15 08:27:20;;;;;;;98.43;54.20;;;;;;;;;;5017544;28;20060;-63
2024/03/15 08:30:08;;;;;;;101.85;54.78;;;;;;;;;;5016460;28;20049;-63
2024/03/15 08:33:02;;;;;;;110.35;58.40;;;;;;;;;;5018475;28;20057;-52
2024/03/15 08:35:49;;;;;;;110.55;58.90;;;;;;;;;;5017930;28;20144;-61
2024/03/15 08:38:43;;;;;;;103.57;56.10;;;;;;;;;;5018323;28;20499;-62
2024/03/15 08:41:30;;;;;;;101.50;54.58;;;;;;;;;;5020187;28;20459;-61
2024/03/15 08:44:23;;;;;;;105.72;55.95;;;;;;;;;;5017786;28;20415;-62
2024/03/15 08:47:12;;;;;;;98.28;53.00;;;;;;;;;;5021125;28;20049;-61
2024/03/15 08:50:32;;;;;;;93.93;51.92;;;;;;;;;;5018938;28;21099;-61
2024/03/15 08:53:11;;;;;;;93.00;52.22;;;;;;;;;;5016525;28;20739;-61
2024/03/15 08:56:05;;;;;;;106.15;51.42;;;;;;;;;;5022530;28;20604;-61
2024/03/15 08:58:53;;;;;;;80.72;46.00;;;;;;;;;;5021709;28;20056;-61
2024/03/15 09:01:47;;;;;;;75.07;42.10;;;;;;;;;;5021860;28;20045;-63
2024/03/15 09:04:35;;;;;;;77.10;43.13;;;;;;;;;;5020162;28;20057;-62
2024/03/15 09:07:31;;;;;;;62.35;38.83;;;;;;;;;;5017293;28;20060;-63
2024/03/15 09:10:23;;;;;;;69.55;41.55;;;;;;;;;;5020978;28;20053;-62
2024/03/15 09:13:10;;;;;;;61.63;37.67;;;;;;;;;;5017584;28;20538;-62
2024/03/15 09:16:09;;;;;;;64.47;36.90;;;;;;;;;;5018829;28;20058;-63
2024/03/15 09:18:59;;;;;;;64.15;36.97;;;;;;;;;;5019515;28;20103;-61
2024/03/15 09:21:59;;;;;;;68.72;38.28;;;;;;;;;;5018291;28;20163;-61
2024/03/15 09:24:43;;;;;;;60.63;36.47;;;;;;;;;;5017701;28;20049;-61
2024/03/15 09:27:38;;;;;;;65.18;37.88;;;;;;;;;;5019000;28;20049;-61
2024/03/15 09:33:34;;;;;;;63.20;35.05;;;;;;;;;;5017410;28;20054;-62
2024/03/15 09:36:21;;;;;;;61.95;37.10;;;;;;;;;;5017131;28;20474;-60
2024/03/15 09:39:14;;;;;;;65.10;37.50;;;;;;;;;;5019324;28;20108;-61
2024/03/15 09:42:02;;;;;;;55.13;33.45;;;;;;;;;;5018728;28;20053;-61
2024/03/15 09:44:59;;;;;;;70.32;38.08;;;;;;;;;;5016411;28;20113;-61
2024/03/15 09:47:51;;;;;;;66.30;37.17;;;;;;;;;;5017816;28;20050;-52
2024/03/15 09:50:47;;;;;;;70.45;37.72;;;;;;;;;;5017241;28;20141;-53
2024/03/15 09:53:34;;;;;;;67.63;38.90;;;;;;;;;;5017705;28;20170;-51
2024/03/15 09:56:27;;;;;;;59.13;36.15;;;;;;;;;;5019135;28;20057;-49
2024/03/15 09:59:18;;;;;;;68.03;37.42;;;;;;;;;;5018128;28;20049;-63
2024/03/15 10:02:23;;;;;;;68.15;38.60;;;;;;;;;;5020248;28;20103;-62
2024/03/15 10:05:10;;;;;;;79.05;39.63;;;;;;;;;;5023689;28;20057;-61
2024/03/15 10:08:05;;;;;;;87.05;43.17;;;;;;;;;;5023166;28;20503;-62
2024/03/15 10:10:52;;;;;;;92.80;43.05;;;;;;;;;;5018636;28;20057;-62
2024/03/15 10:13:45;;;;;;;93.05;43.05;;;;;;;;;;5017491;28;20150;-62
2024/03/15 10:16:37;;;;;;;66.88;36.05;;;;;;;;;;5017715;28;20498;-54
2024/03/15 10:19:28;;;;;;;74.70;39.75;;;;;;;;;;5017862;28;20049;-55
2024/03/15 10:22:21;;;;;;;74.28;40.70;;;;;;;;;;5017065;28;20119;-54
2024/03/15 10:25:17;;;;;;;76.22;38.13;;;;;;;;;;5020196;28;20519;-62
2024/03/15 10:28:04;;;;;;;66.40;36.83;;;;;;;;;;5017352;28;20131;-52
2024/03/15 10:30:57;;;;;;;68.13;38.92;;;;;;;;;;5016504;28;20061;-60
2024/03/15 10:33:45;;;;;;;68.10;36.65;;;;;;;;;;5016351;28;20081;-61
2024/03/15 10:36:40;;;;;;;82.22;41.67;;;;;;;;;;5019111;28;20055;-61
2024/03/15 10:39:27;;;;;;;75.13;39.65;;;;;;;;;;5018944;28;20483;-60
2024/03/15 10:42:23;;;;;;;64.28;37.63;;;;;;;;;;5017979;28;20144;-60
2024/03/15 10:45:16;;;;;;;66.05;38.13;;;;;;;;;;5014967;28;20133;-53
2024/03/15 10:48:10;;;;;;;75.57;40.13;;;;;;;;;;5015525;28;20045;-51
2024/03/15 10:50:58;;;;;;;74.80;38.53;;;;;;;;;;5019981;28;20061;-52
2024/03/15 10:53:53;;;;;;;71.88;39.80;;;;;;;;;;5019334;28;20933;-52
2024/03/15 10:56:41;;;;;;;70.47;40.10;;;;;;;;;;5017170;28;20064;-52
2024/03/15 10:59:36;;;;;;;88.53;42.35;;;;;;;;;;5020315;28;20046;-63
2024/03/15 11:02:25;;;;;;;78.43;40.00;;;;;;;;;;5019437;28;20352;-62
2024/03/15 11:05:20;;;;;;;82.63;40.83;;;;;;;;;;5020818;28;20049;-62
2024/03/15 11:08:12;;;;;;;77.38;38.80;;;;;;;;;;5019615;28;20045;-62
2024/03/15 11:11:06;;;;;;;66.32;37.30;;;;;;;;;;5019340;28;20092;-62
2024/03/15 11:13:53;;;;;;;75.25;39.58;;;;;;;;;;5019909;28;20058;-61
2024/03/15 11:16:56;;;;;;;76.55;38.50;;;;;;;;;;5015877;28;20045;-61
2024/03/15 11:19:46;;;;;;;80.55;41.13;;;;;;;;;;5016750;28;20045;-62
2024/03/15 11:23:00;;;;;;;70.18;38.00;;;;;;;;;;5017039;28;20973;-53
2024/03/15 11:25:57;;;;;;;82.40;40.78;;;;;;;;;;5015662;28;20049;-52
2024/03/15 11:28:55;;;;;;;74.50;39.90;;;;;;;;;;5016713;28;20092;-54
2024/03/15 11:31:45;;;;;;;80.05;42.17;;;;;;;;;;5016204;28;20616;-51
2024/03/15 11:34:39;;;;;;;70.75;39.28;;;;;;;;;;5015781;28;20076;-52
2024/03/15 11:37:26;;;;;;;90.22;42.25;;;;;;;;;;5015558;28;20448;-50
2024/03/15 11:40:19;;;;;;;86.78;44.05;;;;;;;;;;5017810;28;20478;-54
2024/03/15 11:43:10;;;;;;;76.43;40.25;;;;;;;;;;5018328;28;20054;-61
2024/03/15 11:46:04;;;;;;;83.90;43.97;;;;;;;;;;5015534;28;20065;-61
2024/03/15 11:48:51;;;;;;;80.18;42.60;;;;;;;;;;5012894;28;20050;-61
2024/03/15 11:51:54;;;;;;;84.55;44.47;;;;;;;;;;5015321;28;20060;-65
2024/03/15 11:55:08;;;;;;;85.78;46.25;;;;;;;;;;4999243;28;20061;-61
2024/03/15 11:58:01;;;;;;;82.80;43.08;;;;;;;;;;5018032;28;20111;-62
2024/03/15 12:00:55;;;;;;;70.15;39.00;;;;;;;;;;5015776;28;20053;-61
2024/03/15 12:03:44;;;;;;;66.65;38.72;;;;;;;;;;5015338;28;20050;-61
2024/03/15 12:06:39;;;;;;;74.18;42.67;;;;;;;;;;5016478;28;20529;-61
2024/03/15 12:09:25;;;;;;;78.38;42.38;;;;;;;;;;5016206;28;20057;-60
2024/03/15 12:12:22;;;;;;;79.15;43.78;;;;;;;;;;5016820;28;20518;-61
2024/03/15 12:15:26;;;;;;;80.47;45.50;;;;;;;;;;5012308;28;20140;-60
2024/03/15 12:18:23;;;;;;;73.95;41.40;;;;;;;;;;5016861;28;20571;-61
2024/03/15 12:21:18;;;;;;;75.00;44.97;;;;;;;;;;5016207;28;20050;-62
2024/03/15 12:24:11;;;;;;;74.13;42.97;;;;;;;;;;5014120;28;20049;-61
2024/03/15 12:26:59;;;;;;;77.88;43.78;;;;;;;;;;5017565;28;20060;-60
2024/03/15 12:29:53;;;;;;;77.30;43.95;;;;;;;;;;5017064;28;20049;-61
2024/03/15 12:32:40;;;;;;;80.85;45.05;;;;;;;;;;5018869;28;20049;-60
2024/03/15 12:35:34;;;;;;;64.30;38.72;;;;;;;;;;5016230;28;20515;-60
2024/03/15 12:38:21;;;;;;;79.55;44.35;;;;;;;;;;5017338;28;20466;-62
2024/03/15 12:41:15;;;;;;;71.07;42.83;;;;;;;;;;5016259;28;20104;-63
2024/03/15 12:44:04;;;;;;;58.17;37.65;;;;;;;;;;5018384;28;20064;-62
2024/03/15 12:46:58;;;;;;;69.47;42.33;;;;;;;;;;5013271;28;20131;-62
2024/03/15 12:49:45;;;;;;;64.10;40.00;;;;;;;;;;5012447;28;20071;-63
2024/03/15 12:52:42;;;;;;;64.68;39.50;;;;;;;;;;5014283;28;20041;-63
2024/03/15 12:55:29;;;;;;;70.45;41.70;;;;;;;;;;5014899;28;20057;-62
2024/03/15 12:58:24;;;;;;;66.20;40.10;;;;;;;;;;5015827;28;20108;-62
2024/03/15 13:01:11;;;;;;;73.07;41.58;;;;;;;;;;5015703;28;20064;-62
2024/03/15 13:04:05;;;;;;;61.83;39.97;;;;;;;;;;5014400;28;20054;-62
2024/03/15 13:06:52;;;;;;;68.53;39.67;;;;;;;;;;5016570;28;20135;-62
2024/03/15 13:09:45;;;;;;;70.20;40.28;;;;;;;;;;5013913;28;20050;-61
2024/03/15 13:12:33;;;;;;;63.50;38.35;;;;;;;;;;5016572;28;20184;-62
2024/03/15 13:15:27;;;;;;;65.38;40.45;;;;;;;;;;5014140;28;20061;-62
2024/03/15 13:18:15;;;;;;;67.80;41.10;;;;;;;;;;5014339;28;20050;-61
2024/03/15 13:21:19;;;;;;;74.45;43.47;;;;;;;;;;5016847;28;20720;-61
2024/03/15 13:24:13;;;;;;;72.63;40.35;;;;;;;;;;5017572;28;20060;-61
2024/03/15 13:27:10;;;;;;;63.50;38.35;;;;;;;;;;5017968;28;20077;-61
2024/03/15 13:29:57;;;;;;;71.10;43.05;;;;;;;;;;5019818;28;20058;-61
2024/03/15 13:32:54;;;;;;;64.28;41.28;;;;;;;;;;5017263;28;20142;-61
2024/03/15 13:35:41;;;;;;;69.32;39.88;;;;;;;;;;5020212;28;20057;-52
2024/03/15 13:38:31;;;;;;;67.97;39.60;;;;;;;;;;5017488;28;20061;-48
2024/03/15 13:41:24;;;;;;;56.65;35.38;;;;;;;;;;5020939;28;20068;-49
2024/03/15 13:44:13;;;;;;;63.45;40.83;;;;;;;;;;5017665;28;20115;-52
2024/03/15 13:47:07;;;;;;;68.22;40.08;;;;;;;;;;5016619;28;20481;-60
2024/03/15 13:50:01;;;;;;;68.53;39.63;;;;;;;;;;5017236;28;20056;-62
2024/03/15 13:52:54;;;;;;;69.20;39.53;;;;;;;;;;5017008;28;20057;-61
2024/03/15 13:55:48;;;;;;;66.07;38.03;;;;;;;;;;5015814;28;20107;-62
2024/03/15 13:58:43;;;;;;;69.60;39.28;;;;;;;;;;5015963;28;20053;-62
2024/03/15 14:01:33;;;;;;;64.60;37.10;;;;;;;;;;5019091;28;20466;-61
2024/03/15 14:04:26;;;;;;;72.03;39.08;;;;;;;;;;5018098;28;20045;-53
2024/03/15 14:07:15;;;;;;;64.20;38.42;;;;;;;;;;5016707;28;21502;-50
2024/03/15 14:10:09;;;;;;;65.10;38.83;;;;;;;;;;5018674;28;20045;-50
2024/03/15 14:12:55;;;;;;;52.63;35.15;;;;;;;;;;5018485;28;20049;-61
2024/03/15 14:15:49;;;;;;;62.92;38.53;;;;;;;;;;5014564;28;20038;-61
2024/03/15 14:18:44;;;;;;;58.55;36.92;;;;;;;;;;5018752;28;20107;-66
2024/03/15 14:21:40;;;;;;;61.50;37.40;;;;;;;;;;5018412;28;20140;-66
2024/03/15 14:24:31;;;;;;;56.58;33.47;;;;;;;;;;5016490;28;20054;-66
2024/03/15 14:27:21;;;;;;;47.85;33.20;;;;;;;;;;5021789;28;20049;-67
2024/03/15 14:30:18;;;;;;;61.70;35.33;;;;;;;;;;5020634;28;20534;-66
2024/03/15 14:33:08;;;;;;;60.83;36.08;;;;;;;;;;5017493;28;20426;-61
2024/03/15 14:36:02;;;;;;;51.50;30.10;;;;;;;;;;5018962;28;20049;-60
2024/03/15 14:38:54;;;;;;;61.05;36.30;;;;;;;;;;5016804;28;20085;-61
2024/03/15 14:41:43;;;;;;;57.38;35.33;;;;;;;;;;5017676;28;20486;-60
2024/03/15 14:44:30;;;;;;;53.50;35.42;;;;;;;;;;5019088;28;20499;-49
2024/03/15 14:47:24;;;;;;;60.83;34.63;;;;;;;;;;5013550;28;20561;-60
2024/03/15 14:50:14;;;;;;;52.05;34.00;;;;;;;;;;5016671;28;20099;-60
2024/03/15 14:53:08;;;;;;;52.05;30.60;;;;;;;;;;5014117;28;20061;-60
2024/03/15 14:55:55;;;;;;;50.33;32.30;;;;;;;;;;5015977;28;20060;-60
2024/03/15 14:58:48;;;;;;;60.78;33.22;;;;;;;;;;5014718;28;20456;-61
2024/03/15 15:01:36;;;;;;;56.60;27.50;;;;;;;;;;5015212;28;20045;-60
2024/03/15 15:04:30;;;;;;;54.92;33.60;;;;;;;;;;5016760;28;20053;-60
2024/03/15 15:07:17;;;;;;;58.78;34.88;;;;;;;;;;5016027;28;20048;-60
2024/03/15 15:10:10;;;;;;;66.85;36.35;;;;;;;;;;5017217;28;20049;-62
2024/03/15 15:12:58;;;;;;;60.63;35.42;;;;;;;;;;5014806;28;20045;-60
2024/03/15 15:15:51;;;;;;;59.42;33.58;;;;;;;;;;5012798;28;20049;-60
2024/03/15 15:18:39;;;;;;;62.15;33.40;;;;;;;;;;5016810;28;20068;-60
2024/03/15 15:21:39;;;;;;;61.22;34.10;;;;;;;;;;5017837;28;20489;-60
2024/03/15 15:24:33;;;;;;;60.20;33.75;;;;;;;;;;5014800;28;20050;-60
2024/03/15 15:27:27;;;;;;;64.50;32.88;;;;;;;;;;5014746;28;20557;-64
2024/03/15 15:30:21;;;;;;;68.63;35.90;;;;;;;;;;5014955;28;20053;-62
2024/03/15 15:33:15;;;;;;;62.60;31.85;;;;;;;;;;5017914;28;20144;-61
2024/03/15 15:36:03;;;;;;;62.70;33.97;;;;;;;;;;5016424;28;20159;-62
2024/03/15 15:38:56;;;;;;;63.15;33.45;;;;;;;;;;5017419;28;20057;-43
2024/03/15 15:41:43;;;;;;;73.90;35.40;;;;;;;;;;5018699;28;21528;-59
2024/03/15 15:44:37;;;;;;;72.72;35.22;;;;;;;;;;5015481;28;20503;-60
2024/03/15 15:47:24;;;;;;;61.63;34.05;;;;;;;;;;5017995;28;20053;-60
2024/03/15 15:50:18;;;;;;;64.53;34.45;;;;;;;;;;5015084;28;20075;-59
2024/03/15 15:53:05;;;;;;;63.10;31.95;;;;;;;;;;5015318;28;20053;-59
2024/03/15 15:55:58;;;;;;;74.47;35.28;;;;;;;;;;5014705;28;20406;-59
2024/03/15 15:58:47;;;;;;;73.70;35.83;;;;;;;;;;5015772;28;20056;-60
2024/03/15 16:01:41;;;;;;;74.00;34.50;;;;;;;;;;5015401;28;20069;-60
2024/03/15 16:04:28;;;;;;;69.88;34.50;;;;;;;;;;5012506;28;20466;-60
2024/03/15 16:07:21;;;;;;;67.78;32.70;;;;;;;;;;5014657;28;20119;-51
2024/03/15 16:10:08;;;;;;;73.00;34.28;;;;;;;;;;5013580;28;20045;-64
2024/03/15 16:13:02;;;;;;;67.15;32.97;;;;;;;;;;5014759;28;20061;-64
2024/03/15 16:15:49;;;;;;;78.15;35.33;;;;;;;;;;5012790;28;20058;-65
2024/03/15 16:18:42;;;;;;;71.05;32.67;;;;;;;;;;5014889;28;20148;-65
2024/03/15 16:21:36;;;;;;;59.83;30.80;;;;;;;;;;5011447;28;20081;-65
2024/03/15 16:24:31;;;;;;;69.03;35.63;;;;;;;;;;5010988;28;20055;-65
2024/03/15 16:27:27;;;;;;;67.28;32.70;;;;;;;;;;5014939;28;20055;-53
2024/03/15 16:30:21;;;;;;;68.00;31.80;;;;;;;;;;5015463;28;20045;-50
2024/03/15 16:33:08;;;;;;;65.57;29.77;;;;;;;;;;5014310;28;20049;-51